createdAt,value
2023-05-13T00:03:40.233Z,14.78
2023-05-13T00:08:43.510Z,14.73
2023-05-13T00:13:46.521Z,14.76
2023-05-13T00:18:51.368Z,14.79
2023-05-13T00:23:54.420Z,14.78
2023-05-13T00:28:57.403Z,14.79
2023-05-13T00:34:01.838Z,14.72
2023-05-13T00:39:05.036Z,14.76
2023-05-13T00:44:08.150Z,14.69
2023-05-13T00:49:12.602Z,14.63
2023-05-13T00:54:15.723Z,14.44
2023-05-13T00:59:18.907Z,14.47
2023-05-13T01:04:32.167Z,14.42
2023-05-13T01:09:42.012Z,14.34
2023-05-13T01:14:53.570Z,14.21
2023-05-13T01:20:01.919Z,14.13
2023-05-13T01:25:06.960Z,13.98
2023-05-13T01:30:12.143Z,13.87
2023-05-13T01:35:17.462Z,13.82
2023-05-13T01:40:32.420Z,13.72
2023-05-13T01:45:42.677Z,13.59
2023-05-13T01:50:47.386Z,13.60
2023-05-13T01:55:51.890Z,13.57
2023-05-13T02:00:55.473Z,13.53
2023-05-13T02:05:58.645Z,13.48
2023-05-13T02:11:03.281Z,13.45
2023-05-13T02:16:06.884Z,13.26
2023-05-13T02:21:10.387Z,13.15
2023-05-13T02:26:14.811Z,13.17
2023-05-13T02:31:18.201Z,13.06
2023-05-13T02:36:21.230Z,13.03
2023-05-13T02:41:26.145Z,12.96
2023-05-13T02:46:29.542Z,12.95
2023-05-13T02:51:32.697Z,13.02
2023-05-13T02:56:37.462Z,12.98
2023-05-13T03:01:41.686Z,13.03
2023-05-13T03:06:44.953Z,13.00
2023-05-13T03:11:49.748Z,12.90
2023-05-13T03:16:52.720Z,12.85
2023-05-13T03:21:56.463Z,12.79
2023-05-13T03:27:01.919Z,12.67
2023-05-13T03:32:06.546Z,12.58
2023-05-13T03:37:11.314Z,12.67
2023-05-13T03:42:15.752Z,12.66
2023-05-13T03:47:19.508Z,12.57
2023-05-13T03:52:22.876Z,12.52
2023-05-13T03:57:27.338Z,12.46
2023-05-13T04:02:30.556Z,12.43
2023-05-13T04:07:33.680Z,12.37
2023-05-13T04:12:38.827Z,12.36
2023-05-13T04:17:42.204Z,12.32
2023-05-13T04:22:45.334Z,12.42
2023-05-13T04:27:51.904Z,12.44
2023-05-13T04:33:04.603Z,12.50
2023-05-13T04:38:09.306Z,12.52
2023-05-13T04:43:13.809Z,12.47
2023-05-13T04:48:32.327Z,12.55
2023-05-13T04:53:36.429Z,12.49
2023-05-13T04:58:43.734Z,12.56
2023-05-13T05:03:49.099Z,12.57
2023-05-13T05:08:52.357Z,12.59
2023-05-13T05:13:56.832Z,12.59
2023-05-13T05:19:00.043Z,12.68
2023-05-13T05:24:03.532Z,12.68
2023-05-13T05:29:08.237Z,12.74
2023-05-13T05:34:11.413Z,12.73
2023-05-13T05:39:14.601Z,12.85
2023-05-13T05:44:19.103Z,12.87
2023-05-13T05:49:22.838Z,13.01
2023-05-13T05:54:26.795Z,13.12
2023-05-13T05:59:31.262Z,13.19
2023-05-13T06:04:34.353Z,13.34
2023-05-13T06:09:37.622Z,13.44
2023-05-13T06:14:42.164Z,13.53
2023-05-13T06:19:45.965Z,13.57
2023-05-13T06:24:49.579Z,13.73
2023-05-13T06:29:54.076Z,13.83
2023-05-13T06:34:57.115Z,13.92
2023-05-13T06:40:01.825Z,14.05
2023-05-13T06:45:09.574Z,14.13
2023-05-13T06:50:12.791Z,14.27
2023-05-13T06:55:16.678Z,14.39
2023-05-13T07:00:22.642Z,14.56
2023-05-13T07:05:27.008Z,14.68
2023-05-13T07:10:32.059Z,14.98
2023-05-13T07:15:36.476Z,15.15
2023-05-13T07:20:39.489Z,15.40
2023-05-13T07:25:42.424Z,15.63
2023-05-13T07:30:46.862Z,16.21
2023-05-13T07:35:50.053Z,16.49
2023-05-13T07:40:53.497Z,16.53
2023-05-13T07:45:58.006Z,16.53
2023-05-13T07:51:01.056Z,16.69
2023-05-13T07:56:04.232Z,16.78
2023-05-13T08:01:08.829Z,16.95
2023-05-13T08:06:11.911Z,17.15
2023-05-13T08:11:15.005Z,17.37
2023-05-13T08:16:19.406Z,17.57
2023-05-13T08:21:22.456Z,17.84
2023-05-13T08:26:25.469Z,17.98
2023-05-13T08:31:30.388Z,18.29
2023-05-13T08:36:33.989Z,18.60
2023-05-13T08:41:38.619Z,18.82
2023-05-13T08:46:49.544Z,19.20
2023-05-13T08:51:52.559Z,19.45
2023-05-13T08:56:55.711Z,19.64
2023-05-13T09:02:03.325Z,19.81
2023-05-13T09:07:06.428Z,20.14
2023-05-13T09:12:10.876Z,20.34
2023-05-13T09:17:15.509Z,20.74
2023-05-13T09:22:19.416Z,20.84
2023-05-13T09:27:38.249Z,21.15
2023-05-13T09:32:49.791Z,21.37
2023-05-13T09:37:52.947Z,21.41
2023-05-13T09:42:59.114Z,21.70
2023-05-13T09:48:04.228Z,22.00
2023-05-13T09:53:12.214Z,22.16
2023-05-13T09:58:15.932Z,22.17
2023-05-13T10:03:20.372Z,22.22
2023-05-13T10:08:23.717Z,22.30
2023-05-13T10:13:27.806Z,22.34
2023-05-13T10:18:32.297Z,22.48
2023-05-13T10:23:35.934Z,22.86
2023-05-13T10:28:39.901Z,23.13
2023-05-13T10:33:45.493Z,23.24
2023-05-13T10:39:01.467Z,23.32
2023-05-13T10:44:05.077Z,23.47
2023-05-13T10:49:15.776Z,23.43
2023-05-13T10:54:20.711Z,23.85
2023-05-13T10:59:23.962Z,23.87
2023-05-13T11:04:28.473Z,23.82
2023-05-13T11:09:32.169Z,23.95
2023-05-13T11:14:35.443Z,24.40
2023-05-13T11:19:45.659Z,24.44
2023-05-13T11:25:05.662Z,24.63
2023-05-13T11:30:22.412Z,24.63
2023-05-13T11:35:28.499Z,24.32
2023-05-13T11:40:33.172Z,24.35
2023-05-13T11:45:40.168Z,24.55
2023-05-13T11:50:45.687Z,24.55
2023-05-13T11:55:48.845Z,24.31
2023-05-13T12:00:52.780Z,24.42
2023-05-13T12:06:03.281Z,24.65
2023-05-13T12:11:10.537Z,24.73
2023-05-13T12:16:14.183Z,24.61
2023-05-13T12:21:18.630Z,24.63
2023-05-13T12:26:21.699Z,24.75
2023-05-13T12:31:24.858Z,24.94
2023-05-13T12:36:33.933Z,25.05
2023-05-13T12:41:39.119Z,25.08
2023-05-13T12:46:51.837Z,25.11
2023-05-13T12:51:57.167Z,25.02
2023-05-13T12:57:00.255Z,25.29
2023-05-13T13:02:05.782Z,25.55
2023-05-13T13:07:12.905Z,25.87
2023-05-13T13:12:15.941Z,25.99
2023-05-13T13:17:19.021Z,25.93
2023-05-13T13:22:23.443Z,26.20
2023-05-13T13:27:27.244Z,26.26
2023-05-13T13:32:30.438Z,26.31
2023-05-13T13:37:36.194Z,26.21
2023-05-13T13:42:44.611Z,25.87
2023-05-13T13:47:48.614Z,25.61
2023-05-13T13:52:53.208Z,26.26
2023-05-13T13:57:56.202Z,26.38
2023-05-13T14:02:59.302Z,25.93
2023-05-13T14:08:03.778Z,25.93
2023-05-13T14:13:06.702Z,26.26
2023-05-13T14:18:09.779Z,26.36
2023-05-13T14:23:14.223Z,26.09
2023-05-13T14:28:17.669Z,26.13
2023-05-13T14:33:20.668Z,25.91
2023-05-13T14:38:25.200Z,25.65
2023-05-13T14:43:28.191Z,25.81
2023-05-13T14:48:31.198Z,25.72
2023-05-13T14:53:35.753Z,25.73
2023-05-13T14:58:38.696Z,25.77
2023-05-13T15:03:41.707Z,25.66
2023-05-13T15:08:46.400Z,25.78
2023-05-13T15:13:51.889Z,25.51
2023-05-13T15:18:56.285Z,25.55
2023-05-13T15:24:00.817Z,25.74
2023-05-13T15:29:06.582Z,25.71
2023-05-13T15:34:12.919Z,25.32
2023-05-13T15:39:18.810Z,25.24
2023-05-13T15:44:25.692Z,25.06
2023-05-13T15:49:29.084Z,24.95
2023-05-13T15:54:33.913Z,25.04
2023-05-13T15:59:40.482Z,25.15
2023-05-13T16:04:44.185Z,25.20
2023-05-13T16:09:53.753Z,25.03
2023-05-13T16:14:57.010Z,24.97
2023-05-13T16:20:00.380Z,24.76
2023-05-13T16:25:08.823Z,24.54
2023-05-13T16:30:12.973Z,24.70
2023-05-13T16:35:16.419Z,25.33
2023-05-13T16:40:21.185Z,25.54
2023-05-13T16:45:29.598Z,25.15
2023-05-13T16:50:40.241Z,24.83
2023-05-13T16:55:44.673Z,24.49
2023-05-13T17:00:47.811Z,24.35
2023-05-13T17:05:53.912Z,24.16
2023-05-13T17:10:58.370Z,24.22
2023-05-13T17:16:01.620Z,24.13
2023-05-13T17:21:05.294Z,23.96
2023-05-13T17:26:13.605Z,23.73
2023-05-13T17:31:16.834Z,23.49
2023-05-13T17:36:20.269Z,23.61
2023-05-13T17:41:24.895Z,23.51
2023-05-13T17:46:28.009Z,23.37
2023-05-13T17:51:31.078Z,22.99
2023-05-13T17:56:35.663Z,22.65
2023-05-13T18:01:38.786Z,22.44
2023-05-13T18:06:41.845Z,22.39
2023-05-13T18:11:46.906Z,22.24
2023-05-13T18:16:50.040Z,21.94
2023-05-13T18:21:53.253Z,21.79
2023-05-13T18:26:57.975Z,21.65
2023-05-13T18:32:01.314Z,21.42
2023-05-13T18:37:04.596Z,21.14
2023-05-13T18:42:09.797Z,20.78
2023-05-13T18:47:12.936Z,20.52
2023-05-13T18:52:15.915Z,20.24
2023-05-13T18:57:20.990Z,20.01
2023-05-13T19:02:24.221Z,19.77
2023-05-13T19:07:27.832Z,19.47
2023-05-13T19:12:32.319Z,19.31
2023-05-13T19:17:37.195Z,18.94
2023-05-13T19:22:43.054Z,18.71
2023-05-13T19:27:50.933Z,18.52
2023-05-13T19:32:54.037Z,18.34
2023-05-13T19:37:57.266Z,18.16
2023-05-13T19:43:01.868Z,17.97
2023-05-13T19:48:05.116Z,17.84
2023-05-13T19:53:08.634Z,17.71
2023-05-13T19:58:13.095Z,17.57
2023-05-13T20:03:16.503Z,17.34
2023-05-13T20:08:21.830Z,17.16
2023-05-13T20:13:26.391Z,17.03
2023-05-13T20:18:29.807Z,16.97
2023-05-13T20:23:33.554Z,16.76
2023-05-13T20:28:40.915Z,16.60
2023-05-13T20:33:44.307Z,16.49
2023-05-13T20:38:47.807Z,16.40
2023-05-13T20:43:55.716Z,16.22
2023-05-13T20:48:58.875Z,16.22
2023-05-13T20:54:02.626Z,16.11
2023-05-13T20:59:09.624Z,16.02
2023-05-13T21:04:13.322Z,15.95
2023-05-13T21:09:16.655Z,15.87
2023-05-13T21:14:21.509Z,15.69
2023-05-13T21:19:25.637Z,15.66
2023-05-13T21:24:28.686Z,15.57
2023-05-13T21:29:33.523Z,15.49
2023-05-13T21:34:38.768Z,15.42
2023-05-13T21:39:42.443Z,15.21
2023-05-13T21:44:47.263Z,15.29
2023-05-13T21:49:50.961Z,15.23
2023-05-13T21:54:54.475Z,15.20
2023-05-13T21:59:58.888Z,15.13
2023-05-13T22:05:02.174Z,15.05
2023-05-13T22:10:06.198Z,14.98
2023-05-13T22:15:12.185Z,14.78
2023-05-13T22:20:15.218Z,14.44
2023-05-13T22:25:18.593Z,14.69
2023-05-13T22:30:23.214Z,14.69
2023-05-13T22:35:28.815Z,14.27
2023-05-13T22:40:31.988Z,14.49
2023-05-13T22:45:37.896Z,14.32
2023-05-13T22:50:40.972Z,14.29
2023-05-13T22:55:44.169Z,14.15
2023-05-13T23:00:52.807Z,14.32
2023-05-13T23:05:56.826Z,14.00
2023-05-13T23:11:00.206Z,14.17
2023-05-13T23:16:04.838Z,13.89
2023-05-13T23:21:09.189Z,14.04
2023-05-13T23:26:12.363Z,13.67
2023-05-13T23:31:17.281Z,13.57
2023-05-13T23:36:20.431Z,13.59
2023-05-13T23:41:23.451Z,13.70
2023-05-13T23:46:28.133Z,13.42
2023-05-13T23:51:31.754Z,13.58
2023-05-13T23:56:36.058Z,13.56
